Time;durP1;ratioP1;P1;durP2;ratioP2;P2;SDS_P1;SDS_P2;PMS_P1;PMS_P2;Temp;Humidity;BMP_temperature;BMP_pressure;BME280_temperature;BME280_humidity;BME280_pressure;Samples;Min_cycle;Max_cycle;Signal;HPM_P1;HPM_P2
2021/06/01 00:00:11;;;;;;;5.27;2.50;;;13.40;99.90;;;;;;5073011;28;20209;-58
2021/06/01 00:02:37;;;;;;;6.97;3.23;;;13.40;99.90;;;;;;5073482;28;20211;-57
2021/06/01 00:05:05;;;;;;;4.10;3.03;;;13.30;99.90;;;;;;5073031;28;20202;-58
2021/06/01 00:07:32;;;;;;;5.27;2.87;;;13.30;99.90;;;;;;5073102;28;20205;-57
2021/06/01 00:10:00;;;;;;;4.67;2.90;;;13.20;99.90;;;;;;5072672;28;20225;-58
2021/06/01 00:12:26;;;;;;;5.73;3.17;;;13.20;99.90;;;;;;5073220;28;20210;-58
2021/06/01 00:14:52;;;;;;;4.30;2.93;;;13.10;99.90;;;;;;5072896;28;20289;-58
2021/06/01 00:17:19;;;;;;;4.97;3.03;;;13.10;99.90;;;;;;5073093;28;20603;-58
2021/06/01 00:19:45;;;;;;;4.37;2.77;;;13.00;99.90;;;;;;5072967;28;20260;-58
2021/06/01 00:22:11;;;;;;;6.93;3.10;;;13.00;99.90;;;;;;5072551;28;20681;-58
2021/06/01 00:24:37;;;;;;;6.63;3.00;;;13.00;99.90;;;;;;5072715;28;20857;-58
2021/06/01 00:27:05;;;;;;;6.63;3.13;;;12.90;99.90;;;;;;5072588;28;20863;-57
2021/06/01 00:29:31;;;;;;;3.90;3.03;;;12.90;99.90;;;;;;5072698;28;20235;-59
2021/06/01 00:31:57;;;;;;;5.40;3.07;;;12.90;99.90;;;;;;5072366;28;20209;-58
2021/06/01 00:34:24;;;;;;;9.00;2.83;;;12.90;99.90;;;;;;5072515;28;20215;-59
2021/06/01 00:36:50;;;;;;;6.40;3.00;;;12.90;99.90;;;;;;5072109;28;20230;-58
2021/06/01 00:39:16;;;;;;;9.27;2.80;;;12.90;99.90;;;;;;5072469;28;20213;-59
2021/06/01 00:41:42;;;;;;;5.83;3.00;;;12.80;99.90;;;;;;5072378;28;20217;-55
2021/06/01 00:44:09;;;;;;;7.23;3.43;;;12.80;99.90;;;;;;5072724;28;20205;-61
2021/06/01 00:46:36;;;;;;;6.30;3.40;;;12.80;99.90;;;;;;5072302;28;20274;-61
2021/06/01 00:49:02;;;;;;;3.77;3.20;;;12.80;99.90;;;;;;5072382;28;20224;-61
2021/06/01 00:51:30;;;;;;;5.67;3.50;;;12.80;99.90;;;;;;5072233;28;20216;-58
2021/06/01 00:53:56;;;;;;;3.90;3.03;;;12.90;99.90;;;;;;5072498;28;20217;-58
2021/06/01 00:56:23;;;;;;;7.60;3.10;;;12.80;99.90;;;;;;5072465;28;20701;-59
2021/06/01 00:58:49;;;;;;;5.67;3.50;;;12.80;99.90;;;;;;5072570;28;20254;-57
2021/06/01 01:01:20;;;;;;;5.37;3.23;;;12.80;99.90;;;;;;5072424;28;20201;-58
2021/06/01 01:03:48;;;;;;;6.20;2.90;;;12.80;99.90;;;;;;5072409;28;20212;-57
2021/06/01 01:06:30;;;;;;;4.47;3.30;;;12.80;99.90;;;;;;5072147;28;20257;-57
2021/06/01 01:08:58;;;;;;;4.67;3.13;;;12.80;99.90;;;;;;5072350;28;20270;-58
2021/06/01 01:11:31;;;;;;;4.77;3.17;;;12.80;99.90;;;;;;5072214;28;20206;-60
2021/06/01 01:14:00;;;;;;;6.70;3.37;;;12.80;99.90;;;;;;5072159;28;20250;-58
2021/06/01 01:16:30;;;;;;;5.43;3.30;;;12.80;99.90;;;;;;5071970;28;20236;-57
2021/06/01 01:19:01;;;;;;;8.20;3.40;;;12.70;99.90;;;;;;5072337;28;20583;-57
2021/06/01 01:21:31;;;;;;;4.57;3.53;;;12.70;99.90;;;;;;5071999;28;20299;-55
2021/06/01 01:24:13;;;;;;;4.20;3.40;;;12.60;99.90;;;;;;5072084;28;20208;-59
2021/06/01 01:26:52;;;;;;;4.97;3.30;;;12.50;99.90;;;;;;5071895;28;20601;-56
2021/06/01 01:29:23;;;;;;;4.63;3.27;;;12.50;99.90;;;;;;5071554;28;20229;-58
2021/06/01 01:31:54;;;;;;;5.03;3.20;;;12.40;99.90;;;;;;5071878;28;20205;-57
2021/06/01 01:34:24;;;;;;;9.00;3.73;;;12.30;99.90;;;;;;5071835;28;20208;-54
2021/06/01 01:36:51;;;;;;;5.53;3.40;;;12.30;99.90;;;;;;5071774;28;20241;-57
2021/06/01 01:39:18;;;;;;;5.80;3.47;;;12.20;99.90;;;;;;5071739;28;20216;-58
2021/06/01 01:41:46;;;;;;;7.27;3.43;;;12.20;99.90;;;;;;5071496;28;20246;-54
2021/06/01 01:44:16;;;;;;;5.63;3.73;;;12.10;99.90;;;;;;5071714;28;20205;-58
2021/06/01 01:46:58;;;;;;;7.30;4.10;;;12.10;99.90;;;;;;5071866;28;20630;-58
2021/06/01 01:49:27;;;;;;;4.87;3.20;;;12.10;99.90;;;;;;5075773;28;20231;-57
2021/06/01 01:51:58;;;;;;;4.07;3.67;;;12.00;99.90;;;;;;5075603;28;20212;-56
2021/06/01 01:54:28;;;;;;;5.50;3.60;;;12.00;99.90;;;;;;5075566;28;20335;-56
2021/06/01 01:56:57;;;;;;;9.20;3.93;;;11.90;99.90;;;;;;5075714;28;20225;-55
2021/06/01 01:59:26;;;;;;;5.23;3.60;;;11.90;99.90;;;;;;5075663;28;20203;-58
2021/06/01 02:01:54;;;;;;;7.10;3.63;;;11.80;99.90;;;;;;5075209;28;20208;-57
2021/06/01 02:04:23;;;;;;;4.93;3.43;;;11.80;99.90;;;;;;5075561;28;20204;-60
2021/06/01 02:06:52;;;;;;;6.13;3.33;;;11.80;99.90;;;;;;5075425;28;20239;-51
2021/06/01 02:09:18;;;;;;;5.57;3.60;;;11.70;99.90;;;;;;5075477;28;20220;-56
2021/06/01 02:11:44;;;;;;;7.07;3.77;;;11.60;99.90;;;;;;5076711;28;20201;-59
2021/06/01 02:14:11;;;;;;;4.80;3.47;;;11.60;99.90;;;;;;5078487;28;20227;-59
2021/06/01 02:16:39;;;;;;;6.13;3.60;;;11.50;99.90;;;;;;5075819;28;20227;-58
2021/06/01 02:19:07;;;;;;;5.07;3.43;;;11.50;99.90;;;;;;5077092;28;20234;-61
2021/06/01 02:21:57;;;;;;;8.10;3.83;;;11.50;99.90;;;;;;5078301;28;20208;-61
2021/06/01 02:24:29;;;;;;;7.20;3.80;;;11.40;99.90;;;;;;5082607;28;20250;-62
2021/06/01 02:27:02;;;;;;;6.37;3.50;;;11.30;99.90;;;;;;5075173;28;20716;-60
2021/06/01 02:29:33;;;;;;;6.50;3.40;;;11.30;99.90;;;;;;5074737;28;20704;-61
2021/06/01 02:32:01;;;;;;;5.67;3.90;;;11.30;99.90;;;;;;5074978;28;20212;-58
2021/06/01 02:34:29;;;;;;;5.50;3.50;;;11.30;99.90;;;;;;5075140;28;20205;-60
2021/06/01 02:36:55;;;;;;;6.43;3.57;;;11.30;99.90;;;;;;5074644;28;20734;-57
2021/06/01 02:39:23;;;;;;;5.80;3.63;;;11.20;99.90;;;;;;5074776;28;20671;-56
2021/06/01 02:41:53;;;;;;;5.90;3.60;;;11.20;99.90;;;;;;5074617;28;20208;-56
2021/06/01 02:44:19;;;;;;;7.70;4.60;;;11.20;99.90;;;;;;5074629;28;20696;-58
2021/06/01 02:46:47;;;;;;;7.93;3.87;;;11.20;99.90;;;;;;5074833;28;20222;-58
2021/06/01 02:49:15;;;;;;;6.30;3.67;;;11.20;99.90;;;;;;5074732;28;20216;-56
2021/06/01 02:51:41;;;;;;;5.03;3.60;;;11.20;99.90;;;;;;5074451;28;20637;-57
2021/06/01 02:54:08;;;;;;;5.50;3.97;;;11.20;99.90;;;;;;5074538;28;20709;-58
2021/06/01 02:56:35;;;;;;;7.37;4.20;;;11.20;99.90;;;;;;5077376;28;20594;-58
2021/06/01 02:59:06;;;;;;;5.93;4.13;;;11.20;99.90;;;;;;5076819;28;20210;-58
2021/06/01 03:01:32;;;;;;;7.13;4.00;;;11.30;99.90;;;;;;5074892;28;20659;-54
2021/06/01 03:03:58;;;;;;;5.30;4.03;;;11.30;99.90;;;;;;5074616;28;20280;-55
2021/06/01 03:06:26;;;;;;;4.90;3.93;;;11.20;99.90;;;;;;5074490;28;20631;-58
2021/06/01 03:08:53;;;;;;;6.37;4.40;;;11.20;99.90;;;;;;5074448;28;20281;-58
2021/06/01 03:11:20;;;;;;;6.07;3.67;;;11.20;99.90;;;;;;5078486;28;20230;-60
2021/06/01 03:13:47;;;;;;;6.03;3.80;;;11.20;99.90;;;;;;5079882;28;20570;-58
2021/06/01 03:16:16;;;;;;;6.47;3.83;;;11.20;99.90;;;;;;5079660;28;20235;-58
2021/06/01 03:18:43;;;;;;;10.03;4.03;;;11.20;99.90;;;;;;5073944;28;20212;-58
2021/06/01 03:21:09;;;;;;;7.53;3.93;;;11.20;99.90;;;;;;5073896;28;20205;-58
2021/06/01 03:23:35;;;;;;;5.00;3.30;;;11.20;99.90;;;;;;5073972;28;20211;-58
2021/06/01 03:26:03;;;;;;;6.07;3.60;;;11.20;99.90;;;;;;5073925;28;20257;-57
2021/06/01 03:28:29;;;;;;;4.70;3.70;;;11.20;99.90;;;;;;5073888;28;20724;-56
2021/06/01 03:30:56;;;;;;;7.33;4.60;;;11.20;99.90;;;;;;5073691;28;20236;-56
2021/06/01 03:33:23;;;;;;;6.97;3.77;;;11.20;99.90;;;;;;5073787;28;20667;-57
2021/06/01 03:35:49;;;;;;;8.67;4.10;;;11.20;99.90;;;;;;5073664;28;20229;-58
2021/06/01 03:38:16;;;;;;;6.53;4.20;;;11.20;99.90;;;;;;5073601;28;20234;-57
2021/06/01 03:40:42;;;;;;;5.80;3.70;;;11.20;99.90;;;;;;5073646;28;20205;-57
2021/06/01 03:43:09;;;;;;;6.17;3.93;;;11.10;99.90;;;;;;5073863;28;20208;-56
2021/06/01 03:45:35;;;;;;;6.47;3.97;;;11.10;99.90;;;;;;5073632;28;20232;-58
2021/06/01 03:48:02;;;;;;;5.17;4.20;;;11.10;99.90;;;;;;5073691;28;20208;-55
2021/06/01 03:50:30;;;;;;;4.87;3.80;;;11.10;99.90;;;;;;5073257;28;20223;-58
2021/06/01 03:52:56;;;;;;;5.17;3.77;;;11.10;99.90;;;;;;5073390;28;20203;-58
2021/06/01 03:55:22;;;;;;;5.10;4.07;;;11.10;99.90;;;;;;5073170;28;20662;-58
2021/06/01 03:57:49;;;;;;;6.77;4.40;;;11.10;99.90;;;;;;5073582;28;20211;-58
2021/06/01 04:00:18;;;;;;;7.80;3.97;;;11.20;99.90;;;;;;5073247;28;20206;-57
2021/06/01 04:02:45;;;;;;;8.13;4.07;;;11.20;99.90;;;;;;5073151;28;20702;-58
2021/06/01 04:05:12;;;;;;;5.67;4.00;;;11.30;99.90;;;;;;5073103;28;20231;-58
2021/06/01 04:07:39;;;;;;;6.30;3.83;;;11.40;99.90;;;;;;5072993;28;20216;-58
2021/06/01 04:10:06;;;;;;;5.00;3.40;;;11.50;99.90;;;;;;5072214;28;20235;-58
2021/06/01 04:12:32;;;;;;;5.50;3.80;;;11.50;99.90;;;;;;5073264;28;20298;-58
2021/06/01 04:14:59;;;;;;;6.37;3.73;;;11.60;99.90;;;;;;5073048;28;20595;-58
2021/06/01 04:17:25;;;;;;;6.80;4.20;;;11.60;99.90;;;;;;5072909;28;20210;-58
2021/06/01 04:19:51;;;;;;;5.40;3.80;;;11.70;99.90;;;;;;5073333;28;20204;-58
2021/06/01 04:22:17;;;;;;;7.07;4.20;;;11.70;99.90;;;;;;5073525;28;20215;-58
2021/06/01 04:24:45;;;;;;;7.57;4.30;;;11.70;99.90;;;;;;5072968;28;20205;-58
2021/06/01 04:27:11;;;;;;;6.63;4.27;;;11.80;99.90;;;;;;5072738;28;20681;-58
2021/06/01 04:29:37;;;;;;;4.93;3.93;;;11.80;99.90;;;;;;5072721;28;20253;-58
2021/06/01 04:32:04;;;;;;;7.87;4.20;;;11.90;99.90;;;;;;5072756;28;20201;-60
2021/06/01 04:34:30;;;;;;;9.20;4.50;;;12.00;99.90;;;;;;5072571;28;20220;-60
2021/06/01 04:36:56;;;;;;;6.30;4.40;;;12.00;99.90;;;;;;5072693;28;20225;-60
2021/06/01 04:39:23;;;;;;;6.43;4.20;;;12.10;99.90;;;;;;5072342;28;20747;-61
2021/06/01 04:41:51;;;;;;;8.53;3.90;;;12.20;99.90;;;;;;5072398;28;20212;-60
2021/06/01 04:44:17;;;;;;;7.67;4.33;;;12.20;99.90;;;;;;5072382;28;20205;-58
2021/06/01 04:46:43;;;;;;;5.60;4.30;;;12.30;99.90;;;;;;5072339;28;20233;-60
2021/06/01 04:49:09;;;;;;;5.97;4.20;;;12.30;99.90;;;;;;5072188;28;20204;-58
2021/06/01 04:51:36;;;;;;;8.57;4.53;;;12.40;99.90;;;;;;5072301;28;20224;-58
2021/06/01 04:54:03;;;;;;;13.80;7.87;;;12.40;99.90;;;;;;5072232;28;20216;-55
2021/06/01 04:56:29;;;;;;;7.27;4.47;;;12.40;99.90;;;;;;5072344;28;20278;-56
2021/06/01 04:58:57;;;;;;;6.63;4.43;;;12.50;99.90;;;;;;5072256;28;20224;-57
2021/06/01 05:01:24;;;;;;;7.80;4.77;;;12.60;99.90;;;;;;5072126;28;20200;-58
2021/06/01 05:03:50;;;;;;;6.63;4.87;;;12.70;99.90;;;;;;5071979;28;20212;-57
2021/06/01 05:06:17;;;;;;;6.00;4.50;;;12.80;99.90;;;;;;5071860;28;20270;-58
2021/06/01 05:08:44;;;;;;;7.57;4.53;;;12.80;99.90;;;;;;5071961;28;20665;-57
2021/06/01 05:11:11;;;;;;;6.70;4.40;;;12.90;99.90;;;;;;5071879;28;20228;-58
2021/06/01 05:13:37;;;;;;;6.33;4.57;;;13.00;99.90;;;;;;5071930;28;20668;-57
2021/06/01 05:16:05;;;;;;;7.60;4.50;;;13.00;99.90;;;;;;5071874;28;20229;-56
2021/06/01 05:18:31;;;;;;;6.40;4.43;;;13.10;99.90;;;;;;5072215;28;20216;-58
2021/06/01 05:20:58;;;;;;;10.57;4.90;;;13.20;99.90;;;;;;5071632;28;20575;-55
2021/06/01 05:23:24;;;;;;;8.07;5.10;;;13.20;99.90;;;;;;5072044;28;20216;-58
2021/06/01 05:25:50;;;;;;;7.60;5.40;;;13.30;99.90;;;;;;5071749;28;20230;-58
2021/06/01 05:28:16;;;;;;;10.67;5.27;;;13.40;99.90;;;;;;5069738;28;20584;-59
2021/06/01 05:30:48;;;;;;;8.10;5.63;;;13.50;99.90;;;;;;5071292;28;20295;-59
2021/06/01 05:33:17;;;;;;;7.17;4.90;;;13.60;99.90;;;;;;5072062;28;20642;-59
2021/06/01 05:35:51;;;;;;;9.03;5.50;;;13.70;99.90;;;;;;5071660;28;20225;-59
2021/06/01 05:38:17;;;;;;;8.73;4.80;;;13.80;99.90;;;;;;5071665;28;20670;-59
2021/06/01 05:40:43;;;;;;;7.90;5.40;;;13.90;99.90;;;;;;5070063;28;20201;-59
2021/06/01 05:43:10;;;;;;;8.13;5.87;;;14.10;99.90;;;;;;5071590;28;20731;-59
2021/06/01 05:45:37;;;;;;;7.57;5.60;;;14.10;99.90;;;;;;5071581;28;20612;-59
2021/06/01 05:48:04;;;;;;;9.67;5.80;;;14.20;99.90;;;;;;5071842;28;20206;-59
2021/06/01 05:50:31;;;;;;;9.50;6.17;;;14.40;99.90;;;;;;5071531;28;20565;-59
2021/06/01 05:52:58;;;;;;;11.37;6.23;;;14.50;99.90;;;;;;5071619;28;20541;-62
2021/06/01 05:55:25;;;;;;;9.43;5.67;;;14.60;99.90;;;;;;5071431;28;20241;-61
2021/06/01 05:57:51;;;;;;;5.87;4.27;;;14.80;99.90;;;;;;5071218;28;20218;-61
2021/06/01 06:00:18;;;;;;;5.93;4.13;;;15.00;99.90;;;;;;5071645;28;20204;-61
2021/06/01 06:02:44;;;;;;;6.57;3.83;;;15.10;99.90;;;;;;5071884;28;20262;-60
2021/06/01 06:05:11;;;;;;;4.67;3.50;;;15.20;99.90;;;;;;5072294;28;20316;-60
2021/06/01 06:07:39;;;;;;;5.37;3.80;;;15.40;99.90;;;;;;5072375;28;20208;-61
2021/06/01 06:10:06;;;;;;;4.73;3.57;;;15.50;99.90;;;;;;5071956;28;20227;-61
2021/06/01 06:12:34;;;;;;;5.20;3.60;;;15.50;99.90;;;;;;5071684;28;20208;-61
2021/06/01 06:15:00;;;;;;;5.27;3.70;;;15.70;99.90;;;;;;5072939;28;20237;-61
2021/06/01 06:17:34;;;;;;;4.23;3.23;;;15.80;99.90;;;;;;5074394;28;20205;-63
2021/06/01 06:20:01;;;;;;;4.50;3.00;;;15.90;99.90;;;;;;5073264;28;20211;-62
2021/06/01 06:22:27;;;;;;;4.93;3.60;;;16.10;99.90;;;;;;5071668;28;20208;-62
2021/06/01 06:24:54;;;;;;;4.07;2.97;;;16.20;99.90;;;;;;5071073;28;20258;-62
2021/06/01 06:27:21;;;;;;;5.00;2.97;;;16.40;99.90;;;;;;5071532;28;20300;-62
2021/06/01 06:29:47;;;;;;;4.50;3.10;;;16.50;99.90;;;;;;5068329;28;20697;-61
2021/06/01 06:32:13;;;;;;;3.33;2.80;;;16.70;99.90;;;;;;5070390;28;20208;-61
2021/06/01 06:34:40;;;;;;;5.43;3.27;;;16.80;99.90;;;;;;5074119;28;20209;-61
2021/06/01 06:37:06;;;;;;;4.57;2.90;;;16.90;99.90;;;;;;5074634;28;20228;-60
2021/06/01 06:39:33;;;;;;;3.33;2.80;;;17.10;99.90;;;;;;5074352;28;20208;-61
2021/06/01 06:42:00;;;;;;;5.33;3.10;;;17.20;99.90;;;;;;5074383;28;20215;-61
2021/06/01 06:44:27;;;;;;;3.97;3.17;;;17.50;99.90;;;;;;5074379;28;20213;-61
2021/06/01 06:47:05;;;;;;;5.13;3.30;;;17.60;99.90;;;;;;5074312;28;20221;-61
2021/06/01 06:49:32;;;;;;;6.67;3.53;;;17.70;99.90;;;;;;5074309;28;20216;-61
2021/06/01 06:51:59;;;;;;;7.57;3.63;;;17.90;99.90;;;;;;5073711;28;20666;-59
2021/06/01 06:54:25;;;;;;;6.23;4.77;;;18.00;99.90;;;;;;5074239;28;20266;-60
2021/06/01 06:56:52;;;;;;;4.97;3.70;;;18.20;99.90;;;;;;5074161;28;20232;-58
2021/06/01 06:59:20;;;;;;;3.30;2.87;;;18.40;99.90;;;;;;5073244;28;20208;-65
2021/06/01 07:01:46;;;;;;;4.20;3.00;;;18.60;99.90;;;;;;5073706;28;20197;-59
2021/06/01 07:04:12;;;;;;;7.47;3.20;;;18.70;99.90;;;;;;5074124;28;20216;-63
2021/06/01 07:06:38;;;;;;;4.13;3.07;;;18.80;99.90;;;;;;5073720;28;20595;-59
2021/06/01 07:09:06;;;;;;;5.40;2.97;;;18.90;99.90;;;;;;5074125;28;20296;-54
2021/06/01 07:11:32;;;;;;;4.27;2.80;;;19.00;99.90;;;;;;5073543;28;20228;-57
2021/06/01 07:14:06;;;;;;;5.43;3.37;;;19.00;99.90;;;;;;5073937;28;20304;-56
2021/06/01 07:16:33;;;;;;;6.43;3.40;;;19.30;99.90;;;;;;5073928;28;20247;-55
2021/06/01 07:18:59;;;;;;;3.60;2.70;;;19.40;99.90;;;;;;5073678;28;20270;-60
2021/06/01 07:21:26;;;;;;;4.13;2.93;;;19.60;99.90;;;;;;5073331;28;20201;-55
2021/06/01 07:23:52;;;;;;;5.60;2.50;;;19.90;99.90;;;;;;5073691;28;20254;-58
2021/06/01 07:26:18;;;;;;;5.60;2.60;;;19.90;99.90;;;;;;5073612;28;20224;-55
2021/06/01 07:28:44;;;;;;;4.30;2.87;;;20.10;99.90;;;;;;5073515;28;20204;-54
2021/06/01 07:31:14;;;;;;;5.37;2.90;;;20.30;99.90;;;;;;5073164;28;20270;-54
2021/06/01 07:33:42;;;;;;;4.00;2.73;;;20.60;99.90;;;;;;5073164;28;20696;-59
2021/06/01 07:36:08;;;;;;;3.80;2.87;;;20.60;99.90;;;;;;5073917;28;20221;-61
2021/06/01 07:38:35;;;;;;;5.07;3.00;;;20.80;99.90;;;;;;5074824;28;20201;-61
2021/06/01 07:41:02;;;;;;;6.47;2.60;;;21.00;99.90;;;;;;5073368;28;20259;-62
2021/06/01 07:43:29;;;;;;;4.13;2.77;;;21.10;99.90;;;;;;5073520;28;20213;-64
2021/06/01 07:45:55;;;;;;;5.03;2.67;;;21.20;99.90;;;;;;5071671;28;20225;-53
2021/06/01 07:48:21;;;;;;;5.80;2.50;;;21.40;99.90;;;;;;5073129;28;20212;-56
2021/06/01 07:50:50;;;;;;;3.30;2.40;;;21.50;99.90;;;;;;5072823;28;20282;-59
2021/06/01 07:53:16;;;;;;;4.20;2.57;;;21.70;99.90;;;;;;5073283;28;20208;-60
2021/06/01 07:55:43;;;;;;;4.97;2.60;;;21.90;99.90;;;;;;5072763;28;20654;-60
2021/06/01 07:58:09;;;;;;;7.50;2.70;;;22.10;99.90;;;;;;5073065;28;20204;-60
2021/06/01 08:00:35;;;;;;;3.67;2.57;;;22.20;99.90;;;;;;5072526;28;20208;-59
2021/06/01 08:03:01;;;;;;;6.33;2.30;;;21.90;99.90;;;;;;5072882;28;20646;-60
2021/06/01 08:05:27;;;;;;;3.57;2.50;;;21.80;99.90;;;;;;5072940;28;20229;-61
2021/06/01 08:07:55;;;;;;;4.87;2.43;;;21.50;99.90;;;;;;5072686;28;20208;-62
2021/06/01 08:10:21;;;;;;;4.93;2.40;;;21.70;99.90;;;;;;5072412;28;20220;-59
2021/06/01 08:12:49;;;;;;;4.43;2.40;;;21.80;99.90;;;;;;5072747;28;20209;-60
2021/06/01 08:15:19;;;;;;;5.00;2.43;;;22.00;99.90;;;;;;5072424;28;20225;-56
2021/06/01 08:17:45;;;;;;;3.93;2.53;;;21.90;99.90;;;;;;5072650;28;20205;-59
2021/06/01 08:20:14;;;;;;;3.43;2.50;;;21.90;99.90;;;;;;5072419;28;20212;-58
2021/06/01 08:22:42;;;;;;;2.67;2.33;;;21.80;99.90;;;;;;5072690;28;20212;-58
2021/06/01 08:25:10;;;;;;;4.63;2.57;;;22.10;99.90;;;;;;5072654;28;20224;-56
2021/06/01 08:27:37;;;;;;;5.20;2.40;;;22.30;99.90;;;;;;5072537;28;20209;-57
2021/06/01 08:30:04;;;;;;;4.70;2.40;;;22.10;99.90;;;;;;5071932;28;20770;-52
2021/06/01 08:32:30;;;;;;;2.93;2.20;;;22.30;99.90;;;;;;5072404;28;20212;-52
2021/06/01 08:34:56;;;;;;;5.20;2.10;;;22.40;99.90;;;;;;5072257;28;20201;-55
2021/06/01 08:37:23;;;;;;;3.57;2.20;;;22.40;99.90;;;;;;5072271;28;20255;-54
2021/06/01 08:39:49;;;;;;;2.77;2.30;;;22.50;99.90;;;;;;5072094;28;20217;-55
2021/06/01 08:42:17;;;;;;;6.10;2.23;;;22.40;99.90;;;;;;5072046;28;20208;-54
2021/06/01 08:44:43;;;;;;;4.77;2.10;;;22.50;99.90;;;;;;5071811;28;20212;-54
2021/06/01 08:47:10;;;;;;;4.60;2.33;;;22.60;99.90;;;;;;5072327;28;20233;-51
2021/06/01 08:49:37;;;;;;;3.43;2.37;;;22.70;99.90;;;;;;5071995;28;20233;-58
2021/06/01 08:52:04;;;;;;;4.73;2.33;;;22.60;99.90;;;;;;5071840;28;20225;-54
2021/06/01 08:54:32;;;;;;;3.10;2.40;;;22.50;99.90;;;;;;5071965;28;20213;-56
2021/06/01 08:56:58;;;;;;;2.93;2.30;;;22.70;99.90;;;;;;5071183;28;20736;-56
2021/06/01 08:59:25;;;;;;;2.93;2.43;;;22.80;99.90;;;;;;5071869;28;20728;-55
2021/06/01 09:01:51;;;;;;;5.50;2.20;;;22.80;99.90;;;;;;5071586;28;20209;-49
2021/06/01 09:04:18;;;;;;;6.37;2.90;;;22.70;99.90;;;;;;5071975;28;20209;-52
2021/06/01 09:06:46;;;;;;;4.40;2.20;;;22.70;99.90;;;;;;5071684;28;20594;-53
2021/06/01 09:09:28;;;;;;;4.17;2.60;;;22.60;99.90;;;;;;5071979;28;20205;-55
2021/06/01 09:12:01;;;;;;;3.60;2.37;;;22.40;99.90;;;;;;5071223;28;20736;-56
2021/06/01 09:22:47;;;;;;;4.47;2.13;;;22.80;99.90;;;;;;5070628;28;20252;-59
2021/06/01 09:25:18;;;;;;;3.17;2.13;;;22.90;99.90;;;;;;5071577;28;20225;-62
2021/06/01 09:27:45;;;;;;;4.33;2.60;;;22.70;99.90;;;;;;5071720;28;20205;-60
2021/06/01 09:30:33;;;;;;;7.17;2.70;;;22.80;99.90;;;;;;5071135;28;20229;-59
2021/06/01 09:32:59;;;;;;;6.17;2.57;;;22.80;99.90;;;;;;5071655;28;20205;-58
2021/06/01 09:35:46;;;;;;;3.97;2.20;;;22.90;99.90;;;;;;5071528;28;20229;-59
2021/06/01 09:38:13;;;;;;;2.93;2.07;;;23.10;99.90;;;;;;5071540;28;20200;-59
2021/06/01 09:40:40;;;;;;;4.33;2.27;;;23.10;99.90;;;;;;5070880;28;20201;-59
2021/06/01 09:43:08;;;;;;;3.03;2.40;;;23.10;99.90;;;;;;5071945;28;20266;-53
2021/06/01 09:45:36;;;;;;;2.80;2.20;;;23.10;99.90;;;;;;5071492;28;20257;-57
2021/06/01 09:48:04;;;;;;;5.97;2.47;;;23.10;99.90;;;;;;5071615;28;20250;-56
2021/06/01 09:50:36;;;;;;;3.53;2.30;;;23.20;99.90;;;;;;5070843;28;20275;-51
2021/06/01 09:53:06;;;;;;;4.37;2.20;;;23.30;99.90;;;;;;5071463;28;20215;-54
2021/06/01 09:55:35;;;;;;;5.13;2.20;;;23.30;99.90;;;;;;5070902;28;20237;-54
2021/06/01 09:58:04;;;;;;;6.20;2.60;;;23.40;99.90;;;;;;5071475;28;20209;-56
2021/06/01 10:00:32;;;;;;;4.07;2.30;;;23.30;99.90;;;;;;5070892;28;20201;-54
2021/06/01 10:03:02;;;;;;;5.87;2.10;;;23.40;99.90;;;;;;5071470;28;20205;-59
2021/06/01 10:05:30;;;;;;;4.93;2.37;;;23.40;99.90;;;;;;5071148;28;20256;-61
2021/06/01 10:07:58;;;;;;;3.00;1.83;;;23.50;99.90;;;;;;5072464;28;20209;-61
2021/06/01 10:10:26;;;;;;;2.80;2.40;;;23.60;99.90;;;;;;5075987;28;20590;-62
2021/06/01 10:12:54;;;;;;;4.63;2.20;;;23.50;99.90;;;;;;5075774;28;20212;-58
2021/06/01 10:15:23;;;;;;;2.50;2.03;;;23.60;99.90;;;;;;5079070;28;20225;-60
2021/06/01 10:17:50;;;;;;;3.00;2.33;;;23.50;99.90;;;;;;5083860;28;20201;-61
2021/06/01 10:20:19;;;;;;;3.63;2.20;;;23.60;99.90;;;;;;5082576;28;20232;-60
2021/06/01 10:22:46;;;;;;;3.37;2.43;;;23.70;99.90;;;;;;5077010;28;20262;-60
2021/06/01 10:25:13;;;;;;;3.77;2.37;;;23.60;99.90;;;;;;5075338;28;20225;-61
2021/06/01 10:27:40;;;;;;;3.03;2.13;;;23.60;99.90;;;;;;5075168;28;20262;-61
2021/06/01 10:30:08;;;;;;;2.60;2.20;;;23.70;99.90;;;;;;5074661;28;20558;-61
2021/06/01 10:32:37;;;;;;;4.43;2.23;;;23.80;99.90;;;;;;5074892;28;20216;-61
2021/06/01 10:35:07;;;;;;;2.53;2.33;;;23.50;99.90;;;;;;5074730;28;20292;-61
2021/06/01 10:43:27;;;;;;;3.73;2.17;;;23.40;99.90;;;;;;5074799;28;20212;-59
2021/06/01 10:48:48;;;;;;;3.50;2.20;;;23.60;99.90;;;;;;5074655;28;20292;-61
2021/06/01 10:53:56;;;;;;;5.20;2.10;;;23.60;99.90;;;;;;5071782;28;20792;-61
2021/06/01 10:56:22;;;;;;;2.20;1.93;;;23.70;99.90;;;;;;5074929;28;20701;-61
2021/06/01 10:59:07;;;;;;;3.20;2.43;;;23.90;99.90;;;;;;5074735;28;20205;-62
2021/06/01 11:01:56;;;;;;;2.47;2.20;;;24.00;99.90;;;;;;5074277;28;20204;-61
2021/06/01 11:04:25;;;;;;;3.97;2.17;;;24.10;99.90;;;;;;5074789;28;20307;-60
2021/06/01 11:07:14;;;;;;;4.53;2.40;;;24.20;99.90;;;;;;5074400;28;20260;-61
2021/06/01 11:09:48;;;;;;;5.17;2.50;;;24.10;99.90;;;;;;5074618;28;20205;-60
2021/06/01 11:12:42;;;;;;;4.40;2.33;;;23.80;99.90;;;;;;5074134;28;20579;-60
2021/06/01 11:15:30;;;;;;;4.13;2.10;;;23.70;99.90;;;;;;5067116;28;20231;-60
2021/06/01 11:18:16;;;;;;;2.77;2.30;;;23.70;99.90;;;;;;5074591;28;20577;-61
2021/06/01 11:21:15;;;;;;;4.17;2.40;;;23.80;99.90;;;;;;5070759;28;20216;-61
2021/06/01 11:33:10;;;;;;;4.80;2.27;;;23.80;99.90;;;;;;5072368;28;20339;-63
2021/06/01 11:35:40;;;;;;;2.70;2.20;;;23.80;99.90;;;;;;5073638;28;20225;-61
2021/06/01 11:38:15;;;;;;;2.83;2.23;;;23.80;99.90;;;;;;5073501;28;20211;-61
2021/06/01 11:41:07;;;;;;;3.37;2.03;;;23.60;99.90;;;;;;5072070;28;20577;-60
2021/06/01 11:43:35;;;;;;;3.30;2.40;;;23.70;99.90;;;;;;5073236;28;20212;-61
2021/06/01 11:46:08;;;;;;;3.40;2.60;;;23.40;99.90;;;;;;5073208;28;20611;-60
2021/06/01 11:51:30;;;;;;;3.10;2.20;;;23.60;99.90;;;;;;5072868;28;20227;-62
2021/06/01 11:53:59;;;;;;;3.20;2.20;;;23.80;99.90;;;;;;5073089;28;20221;-60
2021/06/01 11:57:00;;;;;;;3.40;1.97;;;23.80;99.90;;;;;;5073085;28;20282;-59
2021/06/01 12:02:26;;;;;;;3.93;2.13;;;24.30;99.90;;;;;;5072257;28;20267;-61
2021/06/01 12:05:10;;;;;;;3.03;2.03;;;24.40;99.90;;;;;;5072898;28;20227;-63
2021/06/01 12:13:29;;;;;;;2.87;2.37;;;24.60;99.90;;;;;;5072824;28;20250;-63
2021/06/01 12:18:44;;;;;;;5.00;2.43;;;24.50;99.90;;;;;;5092220;28;20245;-62
2021/06/01 12:21:18;;;;;;;2.70;2.10;;;24.40;99.90;;;;;;5092244;28;20243;-60
2021/06/01 12:23:50;;;;;;;4.67;2.53;;;24.50;99.90;;;;;;5093155;28;20211;-59
2021/06/01 12:26:20;;;;;;;4.37;2.47;;;24.50;99.90;;;;;;5093218;28;20227;-59
2021/06/01 12:31:55;;;;;;;3.60;2.60;;;24.50;99.90;;;;;;5091136;28;20297;-59
2021/06/01 12:34:28;;;;;;;3.00;2.33;;;24.80;99.90;;;;;;5091914;28;20208;-59
2021/06/01 12:41:39;;;;;;;8.67;2.70;;;24.90;99.90;;;;;;5092542;28;20224;-58
2021/06/01 12:45:56;;;;;;;2.53;2.30;;;24.50;99.90;;;;;;5087995;28;20252;-60
2021/06/01 13:08:54;;;;;;;3.07;2.73;;;24.50;99.90;;;;;;5078892;28;20285;-60
2021/06/01 13:14:25;;;;;;;3.23;2.70;;;24.60;99.90;;;;;;5092139;28;20691;-60
2021/06/01 13:19:40;;;;;;;3.67;2.53;;;24.70;99.90;;;;;;5091889;28;20579;-60
2021/06/01 13:22:35;;;;;;;4.37;2.67;;;24.60;99.90;;;;;;5091352;28;20197;-59
2021/06/01 13:30:59;;;;;;;5.27;2.40;;;25.00;99.90;;;;;;5091660;28;20198;-60
2021/06/01 13:36:32;;;;;;;7.80;2.50;;;25.00;99.90;;;;;;5091031;28;20219;-60
2021/06/01 13:39:05;;;;;;;5.33;2.60;;;25.20;99.90;;;;;;5091774;28;20269;-60
2021/06/01 13:47:10;;;;;;;6.20;2.70;;;25.40;99.90;;;;;;5095118;28;20223;-62
2021/06/01 13:49:40;;;;;;;3.73;2.30;;;25.40;99.90;;;;;;5095557;28;20204;-62
2021/06/01 13:52:19;;;;;;;6.07;2.60;;;25.30;99.90;;;;;;5095320;28;20231;-63
2021/06/01 13:55:07;;;;;;;4.30;2.37;;;25.30;99.90;;;;;;5095865;28;20301;-62
2021/06/01 13:57:38;;;;;;;6.10;2.50;;;25.30;99.90;;;;;;5095955;28;20238;-62
2021/06/01 14:00:27;;;;;;;6.87;2.60;;;25.20;99.90;;;;;;5095338;28;20236;-62
2021/06/01 14:19:56;;;;;;;3.40;2.50;;;25.40;99.90;;;;;;5099632;28;20203;-62
2021/06/01 14:28:35;;;;;;;3.07;2.40;;;25.40;99.90;;;;;;5094747;28;20226;-63
2021/06/01 14:36:29;;;;;;;5.57;2.77;;;25.30;99.90;;;;;;5094334;28;20302;-62
2021/06/01 15:29:23;;;;;;;3.03;1.90;;;25.50;99.90;;;;;;5093775;28;20244;-62
2021/06/01 15:31:55;;;;;;;3.23;1.90;;;25.20;99.90;;;;;;5093329;28;20316;-62
2021/06/01 15:48:41;;;;;;;3.50;2.00;;;25.00;99.90;;;;;;5093770;28;20237;-62
2021/06/01 15:54:17;;;;;;;2.60;1.90;;;25.20;99.90;;;;;;5091596;28;20270;-62
2021/06/01 16:13:34;;;;;;;4.97;2.10;;;25.50;99.90;;;;;;5092471;28;20291;-66
2021/06/01 16:21:35;;;;;;;4.43;2.33;;;25.20;99.90;;;;;;5092232;28;20195;-66
2021/06/01 16:29:46;;;;;;;7.10;2.07;;;25.10;99.90;;;;;;5091831;28;20246;-65
2021/06/01 16:32:22;;;;;;;3.80;2.20;;;25.20;99.90;;;;;;5091946;28;20618;-65